createdAt,value
2018-02-10T00:00:04.938Z,975.50
2018-02-10T00:01:05.195Z,975.53
2018-02-10T00:02:05.712Z,975.33
2018-02-10T00:03:05.799Z,975.45
2018-02-10T00:04:05.304Z,975.42
2018-02-10T00:05:06.816Z,975.36
2018-02-10T00:06:05.907Z,975.39
2018-02-10T00:07:05.285Z,975.39
2018-02-10T00:08:05.672Z,975.47
2018-02-10T00:09:10.232Z,975.67
2018-02-10T00:10:05.484Z,975.58
2018-02-10T00:11:05.985Z,975.39
2018-02-10T00:12:05.724Z,975.45
2018-02-10T00:13:05.732Z,975.50
2018-02-10T00:14:05.183Z,975.33
2018-02-10T00:15:05.528Z,975.53
2018-02-10T00:16:05.703Z,975.50
2018-02-10T00:17:05.274Z,975.50
2018-02-10T00:18:05.509Z,975.64
2018-02-10T00:19:05.833Z,975.61
2018-02-10T00:20:05.621Z,975.50
2018-02-10T00:21:04.981Z,975.47
2018-02-10T00:22:05.291Z,975.67
2018-02-10T00:23:06.343Z,975.56
2018-02-10T00:24:05.005Z,975.58
2018-02-10T00:25:05.081Z,975.47
2018-02-10T00:26:05.895Z,975.61
2018-02-10T00:27:05.419Z,975.72
2018-02-10T00:28:04.934Z,975.67
2018-02-10T00:29:10.364Z,975.61
2018-02-10T00:30:05.521Z,975.72
2018-02-10T00:31:07.004Z,975.67
2018-02-10T00:32:05.583Z,975.53
2018-02-10T00:33:05.017Z,975.69
2018-02-10T00:34:05.541Z,975.69
2018-02-10T00:35:05.041Z,975.72
2018-02-10T00:36:05.056Z,975.61
2018-02-10T00:37:05.352Z,975.78
2018-02-10T00:38:05.029Z,975.72
2018-02-10T00:39:04.974Z,975.53
2018-02-10T00:40:05.711Z,975.64
2018-02-10T00:41:05.162Z,975.58
2018-02-10T00:42:05.891Z,975.61
2018-02-10T00:43:05.105Z,975.61
2018-02-10T00:44:05.114Z,975.58
2018-02-10T00:45:05.286Z,975.58
2018-02-10T00:46:05.534Z,975.56
2018-02-10T00:47:11.340Z,975.53
2018-02-10T00:48:05.481Z,975.67
2018-02-10T00:49:10.544Z,975.56
2018-02-10T00:50:05.648Z,975.56
2018-02-10T00:51:05.186Z,975.61
2018-02-10T00:52:05.741Z,975.53
2018-02-10T00:53:05.477Z,975.47
2018-02-10T00:54:06.215Z,975.56
2018-02-10T00:55:05.366Z,975.58
2018-02-10T00:56:05.878Z,975.64
2018-02-10T00:57:05.278Z,975.50
2018-02-10T00:58:05.022Z,975.50
2018-02-10T00:59:05.544Z,975.53
2018-02-10T01:00:05.362Z,975.53
2018-02-10T01:01:05.275Z,975.58
2018-02-10T01:02:05.921Z,975.67
2018-02-10T01:03:05.048Z,975.56
2018-02-10T01:04:05.209Z,975.53
2018-02-10T01:05:05.362Z,975.47
2018-02-10T01:06:05.267Z,975.47
2018-02-10T01:07:10.505Z,975.53
2018-02-10T01:08:05.735Z,975.58
2018-02-10T01:09:05.846Z,975.58
2018-02-10T01:10:05.277Z,975.44
2018-02-10T01:11:05.152Z,975.61
2018-02-10T01:12:05.118Z,975.50
2018-02-10T01:13:05.720Z,975.47
2018-02-10T01:14:04.946Z,975.55
2018-02-10T01:15:05.465Z,975.58
2018-02-10T01:16:05.912Z,975.53
2018-02-10T01:17:05.895Z,975.42
2018-02-10T01:18:05.773Z,975.53
2018-02-10T01:19:05.884Z,975.47
2018-02-10T01:20:05.110Z,975.61
2018-02-10T01:21:05.066Z,975.64
2018-02-10T01:22:06.252Z,975.53
2018-02-10T01:23:05.373Z,975.53
2018-02-10T01:24:05.516Z,975.64
2018-02-10T01:25:04.973Z,975.53
2018-02-10T01:26:05.720Z,975.44
2018-02-10T01:27:05.660Z,975.61
2018-02-10T01:28:10.758Z,975.67
2018-02-10T01:29:05.853Z,975.58
2018-02-10T01:30:05.239Z,975.44
2018-02-10T01:31:05.770Z,975.61
2018-02-10T01:32:05.626Z,975.58
2018-02-10T01:33:05.390Z,975.64
2018-02-10T01:34:05.492Z,975.50
2018-02-10T01:35:05.655Z,975.61
2018-02-10T01:36:05.487Z,975.61
2018-02-10T01:37:11.756Z,975.53
2018-02-10T01:38:05.812Z,975.41
2018-02-10T01:39:05.933Z,975.58
2018-02-10T01:40:05.952Z,975.39
2018-02-10T01:41:05.486Z,975.50
2018-02-10T01:42:05.254Z,975.50
2018-02-10T01:43:05.461Z,975.50
2018-02-10T01:44:05.046Z,975.53
2018-02-10T01:45:05.667Z,975.44
2018-02-10T01:46:05.671Z,975.50
2018-02-10T01:47:05.896Z,975.36
2018-02-10T01:48:05.965Z,975.39
2018-02-10T01:49:05.102Z,975.44
2018-02-10T01:50:05.115Z,975.47
2018-02-10T01:51:05.202Z,975.50
2018-02-10T01:52:05.631Z,975.47
2018-02-10T01:53:05.980Z,975.44
2018-02-10T01:54:05.757Z,975.39
2018-02-10T01:55:05.199Z,975.55
2018-02-10T01:56:05.010Z,975.53
2018-02-10T01:57:05.887Z,975.58
2018-02-10T01:58:05.308Z,975.41
2018-02-10T01:59:05.104Z,975.39
2018-02-10T02:00:05.381Z,975.33
2018-02-10T02:01:05.359Z,975.41
2018-02-10T02:02:05.856Z,975.44
2018-02-10T02:03:05.222Z,975.50
2018-02-10T02:04:05.873Z,975.50
2018-02-10T02:05:05.823Z,975.44
2018-02-10T02:06:05.057Z,975.58
2018-02-10T02:07:05.007Z,975.50
2018-02-10T02:08:05.608Z,975.41
2018-02-10T02:09:05.172Z,975.61
2018-02-10T02:10:05.484Z,975.58
2018-02-10T02:11:04.920Z,975.58
2018-02-10T02:12:05.357Z,975.50
2018-02-10T02:13:05.738Z,975.50
2018-02-10T02:14:05.000Z,975.41
2018-02-10T02:15:05.382Z,975.44
2018-02-10T02:16:05.076Z,975.55
2018-02-10T02:17:05.666Z,975.50
2018-02-10T02:18:06.010Z,975.50
2018-02-10T02:19:07.128Z,975.44
2018-02-10T02:20:10.169Z,975.44
2018-02-10T02:21:05.078Z,975.50
2018-02-10T02:22:05.639Z,975.41
2018-02-10T02:23:05.694Z,975.50
2018-02-10T02:24:05.046Z,975.47
2018-02-10T02:25:05.898Z,975.55
2018-02-10T02:26:05.380Z,975.52
2018-02-10T02:27:05.150Z,975.52
2018-02-10T02:28:05.035Z,975.58
2018-02-10T02:29:05.417Z,975.55
2018-02-10T02:30:05.566Z,975.47
2018-02-10T02:31:04.940Z,975.47
2018-02-10T02:32:05.116Z,975.47
2018-02-10T02:33:05.836Z,975.44
2018-02-10T02:34:05.397Z,975.47
2018-02-10T02:35:05.957Z,975.50
2018-02-10T02:36:05.115Z,975.50
2018-02-10T02:37:05.392Z,975.52
2018-02-10T02:38:05.424Z,975.44
2018-02-10T02:39:05.113Z,975.44
2018-02-10T02:40:05.024Z,975.50
2018-02-10T02:41:05.856Z,975.61
2018-02-10T02:42:05.746Z,975.55
2018-02-10T02:43:05.403Z,975.50
2018-02-10T02:44:05.523Z,975.55
2018-02-10T02:45:05.425Z,975.50
2018-02-10T02:46:05.171Z,975.50
2018-02-10T02:47:05.455Z,975.58
2018-02-10T02:48:05.933Z,975.61
2018-02-10T02:49:05.389Z,975.53
2018-02-10T02:50:05.885Z,975.44
2018-02-10T02:51:05.710Z,975.39
2018-02-10T02:52:05.795Z,975.52
2018-02-10T02:53:05.164Z,975.41
2018-02-10T02:54:05.350Z,975.41
2018-02-10T02:55:06.038Z,975.39
2018-02-10T02:56:05.582Z,975.47
2018-02-10T02:57:05.050Z,975.41
2018-02-10T02:58:05.523Z,975.39
2018-02-10T02:59:05.919Z,975.55
2018-02-10T03:00:05.220Z,975.39
2018-02-10T03:01:05.012Z,975.39
2018-02-10T03:02:05.571Z,975.39
2018-02-10T03:03:05.571Z,975.50
2018-02-10T03:04:05.812Z,975.58
2018-02-10T03:05:06.410Z,975.50
2018-02-10T03:06:05.682Z,975.53
2018-02-10T03:07:05.549Z,975.42
2018-02-10T03:08:05.059Z,975.44
2018-02-10T03:09:05.089Z,975.47
2018-02-10T03:10:05.797Z,975.44
2018-02-10T03:11:05.294Z,975.47
2018-02-10T03:12:05.037Z,975.50
2018-02-10T03:13:05.062Z,975.50
2018-02-10T03:14:05.376Z,975.61
2018-02-10T03:15:05.571Z,975.47
2018-02-10T03:16:05.628Z,975.58
2018-02-10T03:17:05.537Z,975.50
2018-02-10T03:18:05.252Z,975.58
2018-02-10T03:19:05.766Z,975.58
2018-02-10T03:20:05.145Z,975.58
2018-02-10T03:21:05.066Z,975.72
2018-02-10T03:22:05.342Z,975.72
2018-02-10T03:23:06.140Z,975.66
2018-02-10T03:24:05.566Z,975.50
2018-02-10T03:25:05.341Z,975.58
2018-02-10T03:26:05.451Z,975.58
2018-02-10T03:27:05.633Z,975.58
2018-02-10T03:28:05.493Z,975.64
2018-02-10T03:29:05.809Z,975.61
2018-02-10T03:30:05.230Z,975.53
2018-02-10T03:31:06.111Z,975.44
2018-02-10T03:32:05.377Z,975.58
2018-02-10T03:33:05.392Z,975.50
2018-02-10T03:34:05.953Z,975.47
2018-02-10T03:35:05.729Z,975.64
2018-02-10T03:36:05.643Z,975.64
2018-02-10T03:37:05.223Z,975.58
2018-02-10T03:38:05.385Z,975.50
2018-02-10T03:39:05.148Z,975.72
2018-02-10T03:40:05.514Z,975.58
2018-02-10T03:41:05.076Z,975.55
2018-02-10T03:42:05.634Z,975.44
2018-02-10T03:43:05.109Z,975.53
2018-02-10T03:44:05.486Z,975.47
2018-02-10T03:45:05.866Z,975.53
2018-02-10T03:46:05.295Z,975.61
2018-02-10T03:47:04.961Z,975.56
2018-02-10T03:48:05.826Z,975.56
2018-02-10T03:49:05.006Z,975.58
2018-02-10T03:50:05.464Z,975.42
2018-02-10T03:51:05.251Z,975.42
2018-02-10T03:52:05.771Z,975.58
2018-02-10T03:53:05.394Z,975.47
2018-02-10T03:54:05.583Z,975.67
2018-02-10T03:55:05.848Z,975.56
2018-02-10T03:56:05.556Z,975.61
2018-02-10T03:57:05.191Z,975.50
2018-02-10T03:58:05.938Z,975.53
2018-02-10T03:59:06.101Z,975.56
2018-02-10T04:00:05.991Z,975.61
2018-02-10T04:01:05.643Z,975.53
2018-02-10T04:02:05.515Z,975.58
2018-02-10T04:03:05.055Z,975.50
2018-02-10T04:04:05.685Z,975.64
2018-02-10T04:05:04.980Z,975.56
2018-02-10T04:06:05.775Z,975.53
2018-02-10T04:07:06.167Z,975.61
2018-02-10T04:08:05.429Z,975.67
2018-02-10T04:09:05.954Z,975.70
2018-02-10T04:10:05.264Z,975.72
2018-02-10T04:11:10.323Z,975.67
2018-02-10T04:12:05.278Z,975.64
2018-02-10T04:13:05.562Z,975.70
2018-02-10T04:14:05.908Z,975.61
2018-02-10T04:15:05.880Z,975.59
2018-02-10T04:16:05.113Z,975.64
2018-02-10T04:17:05.778Z,975.61
2018-02-10T04:18:06.185Z,975.59
2018-02-10T04:19:05.542Z,975.81
2018-02-10T04:20:05.364Z,975.64
2018-02-10T04:21:05.963Z,975.70
2018-02-10T04:22:04.952Z,975.70
2018-02-10T04:23:05.307Z,975.75
2018-02-10T04:24:05.861Z,975.78
2018-02-10T04:25:05.895Z,975.64
2018-02-10T04:26:05.251Z,975.78
2018-02-10T04:27:05.031Z,975.67
2018-02-10T04:28:05.171Z,975.81
2018-02-10T04:29:05.842Z,975.61
2018-02-10T04:30:05.406Z,975.64
2018-02-10T04:31:04.940Z,975.70
2018-02-10T04:32:05.598Z,975.78
2018-02-10T04:33:05.895Z,975.67
2018-02-10T04:34:05.969Z,975.75
2018-02-10T04:35:05.158Z,975.72
2018-02-10T04:36:05.862Z,975.72
2018-02-10T04:37:05.184Z,975.72
2018-02-10T04:38:05.455Z,975.61
2018-02-10T04:39:05.806Z,975.64
2018-02-10T04:40:05.424Z,975.70
2018-02-10T04:41:05.007Z,975.70
2018-02-10T04:42:05.621Z,975.72
2018-02-10T04:43:04.942Z,975.70
2018-02-10T04:44:05.551Z,975.75
2018-02-10T04:45:05.964Z,975.78
2018-02-10T04:46:05.355Z,975.53
2018-02-10T04:47:05.464Z,975.64
2018-02-10T04:48:10.283Z,975.59
2018-02-10T04:49:05.713Z,975.70
2018-02-10T04:50:05.317Z,975.56
2018-02-10T04:51:06.979Z,975.61
2018-02-10T04:52:06.009Z,975.75
2018-02-10T04:53:05.638Z,975.59
2018-02-10T04:54:05.315Z,975.75
2018-02-10T04:55:05.191Z,975.53
2018-02-10T04:56:05.614Z,975.53
2018-02-10T04:57:05.128Z,975.50
2018-02-10T04:58:05.232Z,975.64
2018-02-10T04:59:10.457Z,975.47
2018-02-10T05:00:05.562Z,975.53
2018-02-10T05:01:05.315Z,975.64
2018-02-10T05:02:05.510Z,975.53
2018-02-10T05:03:06.025Z,975.47
2018-02-10T05:04:05.421Z,975.58
2018-02-10T05:05:05.815Z,975.72
2018-02-10T05:06:05.872Z,975.78
2018-02-10T05:07:05.860Z,975.61
2018-02-10T05:08:05.729Z,975.70
2018-02-10T05:09:05.248Z,975.61
2018-02-10T05:10:05.780Z,975.64
2018-02-10T05:11:05.301Z,975.64
2018-02-10T05:12:05.808Z,975.67
2018-02-10T05:13:05.072Z,975.67
2018-02-10T05:14:05.564Z,975.64
2018-02-10T05:15:05.107Z,975.67
2018-02-10T05:16:05.167Z,975.64
2018-02-10T05:17:05.287Z,975.64
2018-02-10T05:18:05.188Z,975.75
2018-02-10T05:19:06.814Z,975.72
2018-02-10T05:20:04.997Z,975.81
2018-02-10T05:21:05.243Z,975.64
2018-02-10T05:22:04.985Z,975.75
2018-02-10T05:23:06.375Z,975.70
2018-02-10T05:24:05.343Z,975.61
2018-02-10T05:25:06.281Z,975.61
2018-02-10T05:26:05.681Z,975.89
2018-02-10T05:27:08.892Z,975.70
2018-02-10T05:28:06.011Z,975.84
2018-02-10T05:29:04.996Z,975.75
2018-02-10T05:30:05.318Z,975.75
2018-02-10T05:31:06.015Z,975.70
2018-02-10T05:32:05.429Z,975.73
2018-02-10T05:33:05.245Z,975.75
2018-02-10T05:34:05.332Z,975.89
2018-02-10T05:35:05.058Z,975.70
2018-02-10T05:36:05.775Z,975.84
2018-02-10T05:37:05.745Z,975.64
2018-02-10T05:38:05.968Z,975.84
2018-02-10T05:39:05.829Z,975.89
2018-02-10T05:40:05.992Z,975.75
2018-02-10T05:41:05.578Z,975.75
2018-02-10T05:42:05.524Z,975.70
2018-02-10T05:43:10.162Z,975.64
2018-02-10T05:44:05.437Z,975.75
2018-02-10T05:45:05.490Z,975.61
2018-02-10T05:46:05.663Z,975.84
2018-02-10T05:47:05.699Z,975.81
2018-02-10T05:48:05.757Z,975.75
2018-02-10T05:49:05.368Z,975.70
2018-02-10T05:50:05.538Z,975.70
2018-02-10T05:51:10.209Z,975.78
2018-02-10T05:52:05.240Z,975.86
2018-02-10T05:53:05.581Z,975.75
2018-02-10T05:54:05.255Z,975.70
2018-02-10T05:55:10.206Z,975.89
2018-02-10T05:56:05.058Z,975.78
2018-02-10T05:57:05.249Z,975.81
2018-02-10T05:58:05.961Z,975.78
2018-02-10T05:59:05.498Z,975.87
2018-02-10T06:00:06.187Z,975.92
2018-02-10T06:01:05.510Z,975.75
2018-02-10T06:02:05.104Z,975.86
2018-02-10T06:03:05.332Z,975.86
2018-02-10T06:04:05.833Z,975.86
2018-02-10T06:05:05.923Z,975.98
2018-02-10T06:06:05.864Z,975.84
2018-02-10T06:07:05.783Z,975.92
2018-02-10T06:08:05.337Z,975.86
2018-02-10T06:09:05.387Z,975.89
2018-02-10T06:10:05.784Z,975.92
2018-02-10T06:11:08.652Z,975.81
2018-02-10T06:12:05.515Z,975.92
2018-02-10T06:13:05.542Z,975.97
2018-02-10T06:14:05.620Z,975.92
2018-02-10T06:15:05.948Z,975.97
2018-02-10T06:16:05.751Z,975.97
2018-02-10T06:17:05.972Z,976.00
2018-02-10T06:18:05.651Z,975.98
2018-02-10T06:19:05.209Z,975.86
2018-02-10T06:20:05.667Z,975.86
2018-02-10T06:21:05.753Z,975.98
2018-02-10T06:22:05.426Z,975.95
2018-02-10T06:23:06.054Z,975.95
2018-02-10T06:24:04.947Z,976.03
2018-02-10T06:25:10.524Z,976.09
2018-02-10T06:26:05.515Z,976.00
2018-02-10T06:27:04.996Z,975.98
2018-02-10T06:28:05.038Z,975.98
2018-02-10T06:29:05.394Z,975.92
2018-02-10T06:30:05.171Z,976.03
2018-02-10T06:31:05.351Z,975.87
2018-02-10T06:32:05.509Z,976.06
2018-02-10T06:33:05.634Z,975.98
2018-02-10T06:34:05.298Z,975.98
2018-02-10T06:35:05.487Z,976.14
2018-02-10T06:36:05.779Z,976.03
2018-02-10T06:37:06.037Z,976.00
2018-02-10T06:38:05.343Z,976.06
2018-02-10T06:39:05.251Z,976.14
2018-02-10T06:40:05.209Z,976.09
2018-02-10T06:41:05.698Z,976.09
2018-02-10T06:42:05.065Z,976.03
2018-02-10T06:43:06.004Z,976.00
2018-02-10T06:44:10.419Z,976.03
2018-02-10T06:45:05.754Z,976.00
2018-02-10T06:46:05.418Z,976.00
2018-02-10T06:47:05.452Z,976.09
2018-02-10T06:48:05.190Z,976.03
2018-02-10T06:49:05.758Z,976.14
2018-02-10T06:50:05.792Z,976.14
2018-02-10T06:51:05.603Z,976.03
2018-02-10T06:52:05.775Z,976.03
2018-02-10T06:53:05.605Z,976.23
2018-02-10T06:54:05.007Z,976.09
2018-02-10T06:55:05.139Z,976.11
2018-02-10T06:56:05.636Z,976.25
2018-02-10T06:57:06.307Z,976.25
2018-02-10T06:58:05.566Z,976.14
2018-02-10T06:59:05.628Z,976.28
2018-02-10T07:00:10.685Z,976.28
2018-02-10T07:01:05.904Z,976.45
2018-02-10T07:02:05.704Z,976.25
2018-02-10T07:03:05.279Z,976.31
2018-02-10T07:04:05.254Z,976.28
2018-02-10T07:05:06.618Z,976.45
2018-02-10T07:06:06.467Z,976.42
2018-02-10T07:07:05.434Z,976.28
2018-02-10T07:08:05.387Z,976.42
2018-02-10T07:09:05.754Z,976.45
2018-02-10T07:10:05.051Z,976.36
2018-02-10T07:11:05.852Z,976.47
2018-02-10T07:12:05.784Z,976.34
2018-02-10T07:13:05.757Z,976.39
2018-02-10T07:14:05.335Z,976.45
2018-02-10T07:15:05.147Z,976.45
2018-02-10T07:16:05.525Z,976.36
2018-02-10T07:17:05.846Z,976.47
2018-02-10T07:18:05.658Z,976.45
2018-02-10T07:19:05.575Z,976.56
2018-02-10T07:20:05.260Z,976.47
2018-02-10T07:21:05.184Z,976.45
2018-02-10T07:22:05.208Z,976.47
2018-02-10T07:23:05.094Z,976.45
2018-02-10T07:24:05.069Z,976.59
2018-02-10T07:25:05.485Z,976.53
2018-02-10T07:26:05.157Z,976.47
2018-02-10T07:27:06.729Z,976.53
2018-02-10T07:28:05.842Z,976.56
2018-02-10T07:29:06.823Z,976.50
2018-02-10T07:30:05.796Z,976.64
2018-02-10T07:31:05.354Z,976.59
2018-02-10T07:32:05.334Z,976.47
2018-02-10T07:33:05.086Z,976.74
2018-02-10T07:34:10.144Z,976.53
2018-02-10T07:35:05.547Z,976.56
2018-02-10T07:36:05.493Z,976.42
2018-02-10T07:37:05.462Z,976.50
2018-02-10T07:38:05.857Z,976.61
2018-02-10T07:39:05.146Z,976.50
2018-02-10T07:40:05.790Z,976.58
2018-02-10T07:41:05.521Z,976.56
2018-02-10T07:42:05.179Z,976.56
2018-02-10T07:43:05.231Z,976.58
2018-02-10T07:44:06.384Z,976.58
2018-02-10T07:45:06.031Z,976.61
2018-02-10T07:46:05.029Z,976.61
2018-02-10T07:47:05.675Z,976.64
2018-02-10T07:48:05.857Z,976.67
2018-02-10T07:49:06.044Z,976.74
2018-02-10T07:50:05.438Z,976.55
2018-02-10T07:51:05.056Z,976.69
2018-02-10T07:52:06.009Z,976.67
2018-02-10T07:53:05.261Z,976.69
2018-02-10T07:54:05.902Z,976.64
2018-02-10T07:55:05.277Z,976.55
2018-02-10T07:56:05.897Z,976.64
2018-02-10T07:57:05.617Z,976.72
2018-02-10T07:58:05.869Z,976.69
2018-02-10T07:59:05.662Z,976.79
2018-02-10T08:00:05.303Z,976.61
2018-02-10T08:01:05.438Z,976.69
2018-02-10T08:02:05.633Z,976.87
2018-02-10T08:03:05.915Z,976.79
2018-02-10T08:04:06.768Z,976.72
2018-02-10T08:05:05.840Z,976.79
2018-02-10T08:06:05.181Z,976.61
2018-02-10T08:07:05.813Z,976.69
2018-02-10T08:08:05.979Z,976.85
2018-02-10T08:09:05.260Z,976.63
2018-02-10T08:10:05.263Z,976.72
2018-02-10T08:11:05.760Z,976.71
2018-02-10T08:12:05.404Z,976.84
2018-02-10T08:13:05.835Z,976.71
2018-02-10T08:14:05.321Z,976.76
2018-02-10T08:15:05.569Z,976.87
2018-02-10T08:16:05.933Z,976.87
2018-02-10T08:17:05.484Z,976.87
2018-02-10T08:18:05.181Z,976.74
2018-02-10T08:19:05.491Z,976.87
2018-02-10T08:20:06.035Z,976.84
2018-02-10T08:21:05.738Z,976.76
2018-02-10T08:22:05.753Z,977.15
2018-02-10T08:23:05.070Z,976.92
2018-02-10T08:24:05.206Z,976.84
2018-02-10T08:25:05.898Z,976.87
2018-02-10T08:26:05.452Z,976.87
2018-02-10T08:27:04.957Z,976.92
2018-02-10T08:28:05.536Z,976.84
2018-02-10T08:29:05.487Z,976.84
2018-02-10T08:30:05.231Z,976.74
2018-02-10T08:31:05.812Z,976.86
2018-02-10T08:32:05.265Z,976.89
2018-02-10T08:33:10.513Z,976.84
2018-02-10T08:34:05.729Z,976.86
2018-02-10T08:35:05.989Z,976.78
2018-02-10T08:36:05.820Z,976.81
2018-02-10T08:37:05.106Z,976.73
2018-02-10T08:38:05.368Z,976.75
2018-02-10T08:39:05.738Z,976.75
2018-02-10T08:40:05.635Z,976.71
2018-02-10T08:41:05.902Z,976.75
2018-02-10T08:42:05.012Z,976.81
2018-02-10T08:43:05.806Z,976.75
2018-02-10T08:44:05.307Z,976.54
2018-02-10T08:45:05.866Z,976.54
2018-02-10T08:46:05.328Z,976.70
2018-02-10T08:47:05.040Z,976.65
2018-02-10T08:48:05.496Z,976.65
2018-02-10T08:49:05.220Z,976.68
2018-02-10T08:50:05.474Z,976.67
2018-02-10T08:51:05.422Z,976.70
2018-02-10T08:52:05.802Z,976.70
2018-02-10T08:53:05.097Z,976.77
2018-02-10T08:54:10.751Z,976.67
2018-02-10T08:55:05.508Z,976.75
2018-02-10T08:56:05.125Z,976.73
2018-02-10T08:57:05.952Z,976.73
2018-02-10T08:58:05.246Z,976.59
2018-02-10T08:59:05.539Z,976.64
2018-02-10T09:00:05.274Z,976.72
2018-02-10T09:01:05.838Z,976.72
2018-02-10T09:02:05.437Z,976.72
2018-02-10T09:03:05.846Z,976.72
2018-02-10T09:04:05.701Z,976.69
2018-02-10T09:05:05.765Z,976.79
2018-02-10T09:06:05.392Z,976.82
2018-02-10T09:07:05.209Z,976.72
2018-02-10T09:08:06.081Z,976.61
2018-02-10T09:09:10.384Z,976.58
2018-02-10T09:10:05.543Z,976.76
2018-02-10T09:11:05.863Z,976.72
2018-02-10T09:12:05.256Z,976.66
2018-02-10T09:13:05.485Z,976.76
2018-02-10T09:14:05.081Z,976.82
2018-02-10T09:15:05.843Z,976.79
2018-02-10T09:16:05.944Z,976.69
2018-02-10T09:17:05.687Z,976.69
2018-02-10T09:18:05.762Z,976.76
2018-02-10T09:19:05.489Z,976.71
2018-02-10T09:20:05.245Z,976.76
2018-02-10T09:21:05.132Z,976.87
2018-02-10T09:22:05.252Z,976.79
2018-02-10T09:23:05.223Z,976.71
2018-02-10T09:24:05.853Z,976.90
2018-02-10T09:25:05.315Z,976.76
2018-02-10T09:26:05.460Z,976.74
2018-02-10T09:27:05.772Z,976.78
2018-02-10T09:28:05.571Z,976.81
2018-02-10T09:29:04.989Z,976.84
2018-02-10T09:30:05.153Z,976.62
2018-02-10T09:31:05.776Z,976.81
2018-02-10T09:32:04.979Z,976.81
2018-02-10T09:33:05.373Z,976.97
2018-02-10T09:34:06.206Z,976.83
2018-02-10T09:35:05.390Z,976.75
2018-02-10T09:36:04.954Z,976.78
2018-02-10T09:37:05.626Z,976.86
2018-02-10T09:38:05.847Z,976.78
2018-02-10T09:39:05.960Z,976.80
2018-02-10T09:40:05.326Z,976.78
2018-02-10T09:41:05.976Z,976.83
2018-02-10T09:42:06.090Z,976.77
2018-02-10T09:43:06.129Z,976.75
2018-02-10T09:44:05.359Z,976.89
2018-02-10T09:45:05.396Z,976.77
2018-02-10T09:46:05.645Z,976.80
2018-02-10T09:47:05.581Z,976.94
2018-02-10T09:48:05.603Z,976.77
2018-02-10T09:49:06.784Z,976.74
2018-02-10T09:50:05.796Z,976.74
2018-02-10T09:51:05.506Z,976.67
2018-02-10T09:52:05.381Z,976.70
2018-02-10T09:53:05.247Z,976.61
2018-02-10T09:54:05.339Z,976.77
2018-02-10T09:55:05.739Z,976.64
2018-02-10T09:56:05.014Z,976.55
2018-02-10T09:57:06.414Z,976.74
2018-02-10T09:58:05.078Z,976.72
2018-02-10T09:59:05.149Z,976.76
2018-02-10T10:00:05.170Z,976.79
2018-02-10T10:01:05.787Z,976.84
2018-02-10T10:02:05.195Z,976.71
2018-02-10T10:03:05.754Z,976.74
2018-02-10T10:04:05.396Z,976.68
2018-02-10T10:05:05.540Z,976.76
2018-02-10T10:06:05.609Z,976.76
2018-02-10T10:07:05.768Z,976.63
2018-02-10T10:08:05.984Z,976.65
2018-02-10T10:09:05.453Z,976.54
2018-02-10T10:10:06.077Z,976.68
2018-02-10T10:11:06.167Z,976.60
2018-02-10T10:12:05.314Z,976.81
2018-02-10T10:13:05.469Z,976.84
2018-02-10T10:14:05.876Z,976.68
2018-02-10T10:15:05.664Z,976.73
2018-02-10T10:16:05.879Z,976.73
2018-02-10T10:17:06.083Z,976.65
2018-02-10T10:18:05.615Z,976.75
2018-02-10T10:19:05.782Z,976.74
2018-02-10T10:20:05.089Z,976.61
2018-02-10T10:21:05.232Z,976.80
2018-02-10T10:22:05.609Z,976.67
2018-02-10T10:23:05.907Z,976.58
2018-02-10T10:24:05.588Z,976.61
2018-02-10T10:25:05.049Z,976.58
2018-02-10T10:26:05.056Z,976.55
2018-02-10T10:27:05.136Z,976.52
2018-02-10T10:28:05.226Z,976.61
2018-02-10T10:29:05.981Z,976.74
2018-02-10T10:30:05.595Z,976.66
2018-02-10T10:31:05.193Z,976.69
2018-02-10T10:32:05.577Z,976.63
2018-02-10T10:33:05.712Z,976.49
2018-02-10T10:34:05.672Z,976.71
2018-02-10T10:35:05.838Z,976.63
2018-02-10T10:36:05.273Z,976.52
2018-02-10T10:37:05.847Z,976.60
2018-02-10T10:38:05.952Z,976.46
2018-02-10T10:39:06.044Z,976.68
2018-02-10T10:40:05.260Z,976.54
2018-02-10T10:41:05.143Z,976.51
2018-02-10T10:42:05.631Z,976.49
2018-02-10T10:43:05.363Z,976.60
2018-02-10T10:44:05.072Z,976.57
2018-02-10T10:45:05.832Z,976.46
2018-02-10T10:46:05.018Z,976.43
2018-02-10T10:47:05.314Z,976.51
2018-02-10T10:48:05.495Z,976.62
2018-02-10T10:49:05.840Z,976.56
2018-02-10T10:50:05.620Z,976.45
2018-02-10T10:51:05.344Z,976.51
2018-02-10T10:52:05.946Z,976.45
2018-02-10T10:53:05.724Z,976.48
2018-02-10T10:54:05.297Z,976.34
2018-02-10T10:55:06.081Z,976.28
2018-02-10T10:56:05.230Z,976.45
2018-02-10T10:57:06.090Z,976.36
2018-02-10T10:58:05.309Z,976.30
2018-02-10T10:59:05.336Z,976.44
2018-02-10T11:00:05.199Z,976.44
2018-02-10T11:01:05.653Z,976.44
2018-02-10T11:02:05.357Z,976.35
2018-02-10T11:03:05.675Z,976.44
2018-02-10T11:04:05.293Z,976.35
2018-02-10T11:05:05.881Z,976.32
2018-02-10T11:06:05.190Z,976.24
2018-02-10T11:07:06.207Z,976.40
2018-02-10T11:08:05.804Z,976.15
2018-02-10T11:09:05.165Z,976.23
2018-02-10T11:10:05.539Z,976.37
2018-02-10T11:11:05.640Z,976.17
2018-02-10T11:12:05.611Z,976.12
2018-02-10T11:13:05.870Z,976.25
2018-02-10T11:14:05.136Z,976.25
2018-02-10T11:15:05.293Z,976.25
2018-02-10T11:16:05.525Z,976.08
2018-02-10T11:17:05.541Z,976.08
2018-02-10T11:18:05.616Z,976.11
2018-02-10T11:19:05.881Z,976.05
2018-02-10T11:20:06.019Z,976.07
2018-02-10T11:21:05.602Z,976.07
2018-02-10T11:22:05.685Z,976.07
2018-02-10T11:23:05.162Z,976.04
2018-02-10T11:24:05.211Z,976.01
2018-02-10T11:25:05.713Z,976.07
2018-02-10T11:26:05.285Z,975.98
2018-02-10T11:27:05.101Z,976.12
2018-02-10T11:28:05.561Z,975.84
2018-02-10T11:29:04.981Z,975.95
2018-02-10T11:30:05.745Z,975.86
2018-02-10T11:31:05.146Z,976.00
2018-02-10T11:32:05.931Z,975.95
2018-02-10T11:33:05.277Z,975.97
2018-02-10T11:34:05.665Z,975.89
2018-02-10T11:35:05.581Z,975.95
2018-02-10T11:36:05.890Z,976.00
2018-02-10T11:37:05.745Z,976.00
2018-02-10T11:38:05.424Z,975.83
2018-02-10T11:39:05.649Z,975.89
2018-02-10T11:40:05.038Z,975.80
2018-02-10T11:41:05.963Z,975.88
2018-02-10T11:42:05.413Z,975.80
2018-02-10T11:43:05.129Z,975.85
2018-02-10T11:44:06.429Z,975.96
2018-02-10T11:45:05.747Z,975.74
2018-02-10T11:46:05.410Z,976.02
2018-02-10T11:47:06.083Z,975.90
2018-02-10T11:48:05.586Z,975.96
2018-02-10T11:49:05.826Z,975.85
2018-02-10T11:50:05.727Z,975.90
2018-02-10T11:51:05.307Z,975.96
2018-02-10T11:52:05.489Z,975.96
2018-02-10T11:53:05.686Z,975.96
2018-02-10T11:54:05.831Z,976.01
2018-02-10T11:55:05.341Z,975.96
2018-02-10T11:56:05.351Z,975.79
2018-02-10T11:57:05.952Z,975.84
2018-02-10T11:58:05.880Z,975.98
2018-02-10T11:59:05.134Z,975.84
2018-02-10T12:00:05.504Z,975.84
2018-02-10T12:01:05.884Z,975.87
2018-02-10T12:02:05.311Z,975.84
2018-02-10T12:03:06.039Z,975.79
2018-02-10T12:04:05.461Z,975.96
2018-02-10T12:05:05.575Z,975.87
2018-02-10T12:06:05.683Z,975.65
2018-02-10T12:07:05.795Z,975.76
2018-02-10T12:08:05.682Z,975.73
2018-02-10T12:09:06.018Z,975.70
2018-02-10T12:10:05.100Z,975.64
2018-02-10T12:11:05.672Z,975.75
2018-02-10T12:12:05.732Z,975.81
2018-02-10T12:13:05.397Z,975.64
2018-02-10T12:14:05.364Z,975.66
2018-02-10T12:15:05.478Z,975.69
2018-02-10T12:16:05.820Z,975.55
2018-02-10T12:17:06.078Z,975.46
2018-02-10T12:18:05.796Z,975.57
2018-02-10T12:19:05.313Z,975.54
2018-02-10T12:20:05.468Z,975.63
2018-02-10T12:21:05.680Z,975.63
2018-02-10T12:22:05.600Z,975.54
2018-02-10T12:23:05.695Z,975.62
2018-02-10T12:24:05.744Z,975.65
2018-02-10T12:25:06.585Z,975.56
2018-02-10T12:26:05.588Z,975.50
2018-02-10T12:27:05.778Z,975.47
2018-02-10T12:28:05.026Z,975.45